sensor_id;sensor_type;location;lat;lon;timestamp;temperature;humidity
30381;DHT22;17169;50.966;11.038;2023-07-20T00:01:53;17.20;99.90
30381;DHT22;17169;50.966;11.038;2023-07-20T00:04:55;17.20;99.90
30381;DHT22;17169;50.966;11.038;2023-07-20T00:07:57;17.10;99.90
30381;DHT22;17169;50.966;11.038;2023-07-20T00:10:59;17.10;99.90
30381;DHT22;17169;50.966;11.038;2023-07-20T00:14:03;17.00;99.90
30381;DHT22;17169;50.966;11.038;2023-07-20T00:17:06;17.00;99.90
30381;DHT22;17169;50.966;11.038;2023-07-20T00:20:09;16.90;99.90
30381;DHT22;17169;50.966;11.038;2023-07-20T00:23:12;16.90;99.90
30381;DHT22;17169;50.966;11.038;2023-07-20T00:26:15;16.80;99.90
30381;DHT22;17169;50.966;11.038;2023-07-20T00:29:19;16.80;99.90
30381;DHT22;17169;50.966;11.038;2023-07-20T00:32:21;16.80;99.90
30381;DHT22;17169;50.966;11.038;2023-07-20T00:35:24;16.80;99.90
30381;DHT22;17169;50.966;11.038;2023-07-20T00:38:26;16.80;99.90
30381;DHT22;17169;50.966;11.038;2023-07-20T00:41:28;16.80;99.90
30381;DHT22;17169;50.966;11.038;2023-07-20T00:44:32;16.80;99.90
30381;DHT22;17169;50.966;11.038;2023-07-20T00:47:36;16.80;99.90
30381;DHT22;17169;50.966;11.038;2023-07-20T00:50:39;16.80;99.90
30381;DHT22;17169;50.966;11.038;2023-07-20T00:53:42;16.80;99.90
30381;DHT22;17169;50.966;11.038;2023-07-20T00:56:45;16.80;99.90
30381;DHT22;17169;50.966;11.038;2023-07-20T00:59:49;16.70;99.90
30381;DHT22;17169;50.966;11.038;2023-07-20T01:02:52;16.70;99.90
30381;DHT22;17169;50.966;11.038;2023-07-20T01:05:59;16.70;99.90
30381;DHT22;17169;50.966;11.038;2023-07-20T01:09:11;16.60;99.90
30381;DHT22;17169;50.966;11.038;2023-07-20T01:12:22;16.60;99.90
30381;DHT22;17169;50.966;11.038;2023-07-20T01:15:26;16.60;99.90
30381;DHT22;17169;50.966;11.038;2023-07-20T01:18:29;16.60;99.90
30381;DHT22;17169;50.966;11.038;2023-07-20T01:21:34;16.50;99.90
30381;DHT22;17169;50.966;11.038;2023-07-20T01:24:49;16.50;99.90
30381;DHT22;17169;50.966;11.038;2023-07-20T01:28:18;16.50;99.90
30381;DHT22;17169;50.966;11.038;2023-07-20T01:31:25;16.50;99.90
30381;DHT22;17169;50.966;11.038;2023-07-20T01:34:28;16.50;99.90
30381;DHT22;17169;50.966;11.038;2023-07-20T01:37:31;16.40;99.90
30381;DHT22;17169;50.966;11.038;2023-07-20T01:40:35;16.40;99.90
30381;DHT22;17169;50.966;11.038;2023-07-20T01:43:37;16.40;99.90
30381;DHT22;17169;50.966;11.038;2023-07-20T01:46:41;16.40;99.90
30381;DHT22;17169;50.966;11.038;2023-07-20T01:49:43;16.40;99.90
30381;DHT22;17169;50.966;11.038;2023-07-20T01:52:46;16.40;99.90
30381;DHT22;17169;50.966;11.038;2023-07-20T01:55:48;16.40;99.90
30381;DHT22;17169;50.966;11.038;2023-07-20T01:58:50;16.30;99.90
30381;DHT22;17169;50.966;11.038;2023-07-20T02:01:54;16.40;99.90
30381;DHT22;17169;50.966;11.038;2023-07-20T02:04:57;16.40;99.90
30381;DHT22;17169;50.966;11.038;2023-07-20T02:07:59;16.50;99.90
30381;DHT22;17169;50.966;11.038;2023-07-20T02:11:01;16.50;99.90
30381;DHT22;17169;50.966;11.038;2023-07-20T02:14:05;16.50;99.90
30381;DHT22;17169;50.966;11.038;2023-07-20T02:17:09;16.40;99.90
30381;DHT22;17169;50.966;11.038;2023-07-20T02:20:12;16.40;99.90
30381;DHT22;17169;50.966;11.038;2023-07-20T02:23:14;16.50;99.90
30381;DHT22;17169;50.966;11.038;2023-07-20T02:26:17;16.40;99.90
30381;DHT22;17169;50.966;11.038;2023-07-20T02:29:19;16.40;99.90
30381;DHT22;17169;50.966;11.038;2023-07-20T02:32:23;16.50;99.90
30381;DHT22;17169;50.966;11.038;2023-07-20T02:35:25;16.40;99.90
30381;DHT22;17169;50.966;11.038;2023-07-20T02:38:28;16.40;99.90
30381;DHT22;17169;50.966;11.038;2023-07-20T02:41:30;16.30;99.90
30381;DHT22;17169;50.966;11.038;2023-07-20T02:44:32;16.30;99.90
30381;DHT22;17169;50.966;11.038;2023-07-20T02:47:36;16.30;99.90
30381;DHT22;17169;50.966;11.038;2023-07-20T02:50:38;16.30;99.90
30381;DHT22;17169;50.966;11.038;2023-07-20T02:53:41;16.30;99.90
30381;DHT22;17169;50.966;11.038;2023-07-20T02:56:43;16.40;99.90
30381;DHT22;17169;50.966;11.038;2023-07-20T02:59:46;16.40;99.90
30381;DHT22;17169;50.966;11.038;2023-07-20T03:02:50;16.40;99.90
30381;DHT22;17169;50.966;11.038;2023-07-20T03:05:56;16.30;99.90
30381;DHT22;17169;50.966;11.038;2023-07-20T03:08:58;16.30;99.90
30381;DHT22;17169;50.966;11.038;2023-07-20T03:12:01;16.20;99.90
30381;DHT22;17169;50.966;11.038;2023-07-20T03:15:06;16.20;99.90
30381;DHT22;17169;50.966;11.038;2023-07-20T03:18:10;16.30;99.90
30381;DHT22;17169;50.966;11.038;2023-07-20T03:21:12;16.20;99.90
30381;DHT22;17169;50.966;11.038;2023-07-20T03:24:15;16.20;99.90
30381;DHT22;17169;50.966;11.038;2023-07-20T03:27:18;16.30;99.90
30381;DHT22;17169;50.966;11.038;2023-07-20T03:30:20;16.30;99.90
30381;DHT22;17169;50.966;11.038;2023-07-20T03:33:28;16.40;99.90
30381;DHT22;17169;50.966;11.038;2023-07-20T03:36:30;16.40;99.90
30381;DHT22;17169;50.966;11.038;2023-07-20T03:39:33;16.50;99.90
30381;DHT22;17169;50.966;11.038;2023-07-20T03:42:35;16.50;99.90
30381;DHT22;17169;50.966;11.038;2023-07-20T03:45:39;16.50;99.90
30381;DHT22;17169;50.966;11.038;2023-07-20T03:48:43;16.60;99.90
30381;DHT22;17169;50.966;11.038;2023-07-20T03:51:45;16.60;99.90
30381;DHT22;17169;50.966;11.038;2023-07-20T03:54:47;16.60;99.90
30381;DHT22;17169;50.966;11.038;2023-07-20T03:57:50;16.60;99.90
30381;DHT22;17169;50.966;11.038;2023-07-20T04:00:52;16.70;99.90
30381;DHT22;17169;50.966;11.038;2023-07-20T04:03:56;16.70;99.90
30381;DHT22;17169;50.966;11.038;2023-07-20T04:06:58;16.80;99.90
30381;DHT22;17169;50.966;11.038;2023-07-20T04:10:01;16.80;99.90
30381;DHT22;17169;50.966;11.038;2023-07-20T04:13:03;16.80;99.90
30381;DHT22;17169;50.966;11.038;2023-07-20T04:16:05;16.90;99.90
30381;DHT22;17169;50.966;11.038;2023-07-20T04:19:09;16.90;99.90
30381;DHT22;17169;50.966;11.038;2023-07-20T04:22:12;16.90;99.90
30381;DHT22;17169;50.966;11.038;2023-07-20T04:25:17;16.90;99.90
30381;DHT22;17169;50.966;11.038;2023-07-20T04:28:19;16.90;99.90
30381;DHT22;17169;50.966;11.038;2023-07-20T04:31:21;16.80;99.90
30381;DHT22;17169;50.966;11.038;2023-07-20T04:34:25;16.80;99.90
30381;DHT22;17169;50.966;11.038;2023-07-20T04:37:27;16.90;99.90
30381;DHT22;17169;50.966;11.038;2023-07-20T04:40:30;16.80;99.90
30381;DHT22;17169;50.966;11.038;2023-07-20T04:43:32;16.80;99.90
30381;DHT22;17169;50.966;11.038;2023-07-20T04:46:34;16.80;99.90
30381;DHT22;17169;50.966;11.038;2023-07-20T04:49:38;16.90;99.90
30381;DHT22;17169;50.966;11.038;2023-07-20T04:52:40;17.00;99.90
30381;DHT22;17169;50.966;11.038;2023-07-20T04:55:48;17.10;99.90
30381;DHT22;17169;50.966;11.038;2023-07-20T04:58:51;17.10;99.90
30381;DHT22;17169;50.966;11.038;2023-07-20T05:01:53;17.20;99.90
30381;DHT22;17169;50.966;11.038;2023-07-20T05:04:57;17.20;99.90
30381;DHT22;17169;50.966;11.038;2023-07-20T05:07:59;17.20;99.90
30381;DHT22;17169;50.966;11.038;2023-07-20T05:11:02;17.30;99.90
30381;DHT22;17169;50.966;11.038;2023-07-20T05:14:04;17.30;99.90
30381;DHT22;17169;50.966;11.038;2023-07-20T05:17:06;17.40;99.90
30381;DHT22;17169;50.966;11.038;2023-07-20T05:20:11;17.40;99.90
30381;DHT22;17169;50.966;11.038;2023-07-20T05:23:14;17.40;99.90
30381;DHT22;17169;50.966;11.038;2023-07-20T05:26:16;17.40;99.90
30381;DHT22;17169;50.966;11.038;2023-07-20T05:29:18;17.40;99.90
30381;DHT22;17169;50.966;11.038;2023-07-20T05:32:21;17.40;99.90
30381;DHT22;17169;50.966;11.038;2023-07-20T05:35:25;17.50;99.90
30381;DHT22;17169;50.966;11.038;2023-07-20T05:38:28;17.50;99.90
30381;DHT22;17169;50.966;11.038;2023-07-20T05:41:30;17.60;99.90
30381;DHT22;17169;50.966;11.038;2023-07-20T05:44:33;17.50;99.90
30381;DHT22;17169;50.966;11.038;2023-07-20T05:47:35;17.50;99.90
30381;DHT22;17169;50.966;11.038;2023-07-20T05:50:41;17.50;99.90
30381;DHT22;17169;50.966;11.038;2023-07-20T05:53:44;17.40;99.90
30381;DHT22;17169;50.966;11.038;2023-07-20T05:56:47;17.50;99.90
30381;DHT22;17169;50.966;11.038;2023-07-20T05:59:49;17.60;99.90
30381;DHT22;17169;50.966;11.038;2023-07-20T06:02:51;17.70;99.90
30381;DHT22;17169;50.966;11.038;2023-07-20T06:05:59;17.80;99.90
30381;DHT22;17169;50.966;11.038;2023-07-20T06:09:02;17.80;99.90
30381;DHT22;17169;50.966;11.038;2023-07-20T06:12:07;17.90;99.90
30381;DHT22;17169;50.966;11.038;2023-07-20T06:15:24;18.10;99.90
30381;DHT22;17169;50.966;11.038;2023-07-20T06:18:27;18.30;99.90
30381;DHT22;17169;50.966;11.038;2023-07-20T06:21:31;18.40;99.90
30381;DHT22;17169;50.966;11.038;2023-07-20T06:24:33;18.30;99.90
30381;DHT22;17169;50.966;11.038;2023-07-20T06:27:35;18.30;99.90
30381;DHT22;17169;50.966;11.038;2023-07-20T06:30:38;18.30;99.90
30381;DHT22;17169;50.966;11.038;2023-07-20T06:33:40;18.30;99.90
30381;DHT22;17169;50.966;11.038;2023-07-20T06:36:44;18.30;99.90
30381;DHT22;17169;50.966;11.038;2023-07-20T06:39:46;18.40;99.90
30381;DHT22;17169;50.966;11.038;2023-07-20T06:42:49;18.50;99.90
30381;DHT22;17169;50.966;11.038;2023-07-20T06:45:52;18.50;99.90
30381;DHT22;17169;50.966;11.038;2023-07-20T06:48:54;18.50;99.90
30381;DHT22;17169;50.966;11.038;2023-07-20T06:51:59;18.50;99.90
30381;DHT22;17169;50.966;11.038;2023-07-20T06:55:02;18.50;99.90
30381;DHT22;17169;50.966;11.038;2023-07-20T06:58:05;18.70;99.90
30381;DHT22;17169;50.966;11.038;2023-07-20T07:01:08;18.90;99.90
30381;DHT22;17169;50.966;11.038;2023-07-20T07:04:10;19.10;99.90
30381;DHT22;17169;50.966;11.038;2023-07-20T07:07:15;19.10;99.90
30381;DHT22;17169;50.966;11.038;2023-07-20T07:10:17;19.20;99.90
30381;DHT22;17169;50.966;11.038;2023-07-20T07:13:20;19.20;99.90
30381;DHT22;17169;50.966;11.038;2023-07-20T07:16:22;19.40;99.90
30381;DHT22;17169;50.966;11.038;2023-07-20T07:19:24;19.30;99.90
30381;DHT22;17169;50.966;11.038;2023-07-20T07:22:28;19.40;99.90
30381;DHT22;17169;50.966;11.038;2023-07-20T07:25:31;19.50;99.90
30381;DHT22;17169;50.966;11.038;2023-07-20T07:28:34;19.60;99.90
30381;DHT22;17169;50.966;11.038;2023-07-20T07:31:36;19.70;99.90
30381;DHT22;17169;50.966;11.038;2023-07-20T07:34:39;19.70;99.90
30381;DHT22;17169;50.966;11.038;2023-07-20T07:37:43;19.80;99.90
30381;DHT22;17169;50.966;11.038;2023-07-20T07:40:47;19.80;99.90
30381;DHT22;17169;50.966;11.038;2023-07-20T07:43:49;20.00;99.90
30381;DHT22;17169;50.966;11.038;2023-07-20T07:46:52;20.20;99.90
30381;DHT22;17169;50.966;11.038;2023-07-20T07:49:54;20.40;99.90
30381;DHT22;17169;50.966;11.038;2023-07-20T07:52:58;20.40;99.90
30381;DHT22;17169;50.966;11.038;2023-07-20T07:56:00;20.50;99.90
30381;DHT22;17169;50.966;11.038;2023-07-20T07:59:04;20.60;99.90
30381;DHT22;17169;50.966;11.038;2023-07-20T08:02:06;20.70;99.90
30381;DHT22;17169;50.966;11.038;2023-07-20T08:05:09;20.60;99.90
30381;DHT22;17169;50.966;11.038;2023-07-20T08:08:13;20.90;99.90
30381;DHT22;17169;50.966;11.038;2023-07-20T08:11:15;21.00;99.90
30381;DHT22;17169;50.966;11.038;2023-07-20T08:14:19;21.20;99.90
30381;DHT22;17169;50.966;11.038;2023-07-20T08:17:21;21.30;99.90
30381;DHT22;17169;50.966;11.038;2023-07-20T08:20:23;21.10;99.90
30381;DHT22;17169;50.966;11.038;2023-07-20T08:23:28;20.90;99.90
30381;DHT22;17169;50.966;11.038;2023-07-20T08:26:31;20.90;99.90
30381;DHT22;17169;50.966;11.038;2023-07-20T08:29:33;20.80;99.90
30381;DHT22;17169;50.966;11.038;2023-07-20T08:32:35;20.80;99.90
30381;DHT22;17169;50.966;11.038;2023-07-20T08:35:38;20.60;99.90
30381;DHT22;17169;50.966;11.038;2023-07-20T08:38:41;20.80;99.90
30381;DHT22;17169;50.966;11.038;2023-07-20T08:41:44;21.10;99.90
30381;DHT22;17169;50.966;11.038;2023-07-20T08:44:48;21.20;99.90
30381;DHT22;17169;50.966;11.038;2023-07-20T08:47:51;21.50;99.50
30381;DHT22;17169;50.966;11.038;2023-07-20T08:50:53;21.60;98.70
30381;DHT22;17169;50.966;11.038;2023-07-20T08:53:58;21.60;99.00
30381;DHT22;17169;50.966;11.038;2023-07-20T08:57:02;21.60;99.00
30381;DHT22;17169;50.966;11.038;2023-07-20T09:00:06;21.80;98.80
30381;DHT22;17169;50.966;11.038;2023-07-20T09:03:11;21.90;97.90
30381;DHT22;17169;50.966;11.038;2023-07-20T09:06:14;22.00;98.00
30381;DHT22;17169;50.966;11.038;2023-07-20T09:09:18;21.90;97.30
30381;DHT22;17169;50.966;11.038;2023-07-20T09:12:20;21.80;97.40
30381;DHT22;17169;50.966;11.038;2023-07-20T09:15:23;21.80;97.40
30381;DHT22;17169;50.966;11.038;2023-07-20T09:18:27;21.70;97.00
30381;DHT22;17169;50.966;11.038;2023-07-20T09:21:30;21.80;97.20
30381;DHT22;17169;50.966;11.038;2023-07-20T09:24:34;21.80;97.20
30381;DHT22;17169;50.966;11.038;2023-07-20T09:27:37;22.10;97.80
30381;DHT22;17169;50.966;11.038;2023-07-20T09:30:39;22.10;97.10
30381;DHT22;17169;50.966;11.038;2023-07-20T09:33:42;21.90;97.00
30381;DHT22;17169;50.966;11.038;2023-07-20T09:36:44;21.70;97.20
30381;DHT22;17169;50.966;11.038;2023-07-20T09:39:51;21.70;98.40
30381;DHT22;17169;50.966;11.038;2023-07-20T09:42:55;21.40;99.90
30381;DHT22;17169;50.966;11.038;2023-07-20T09:46:01;21.40;99.90
30381;DHT22;17169;50.966;11.038;2023-07-20T09:49:08;21.40;99.90
30381;DHT22;17169;50.966;11.038;2023-07-20T09:52:11;21.20;99.90
30381;DHT22;17169;50.966;11.038;2023-07-20T09:55:16;21.10;99.90
30381;DHT22;17169;50.966;11.038;2023-07-20T09:58:19;20.70;99.90
30381;DHT22;17169;50.966;11.038;2023-07-20T10:01:21;20.50;99.90
30381;DHT22;17169;50.966;11.038;2023-07-20T10:04:25;20.20;99.90
30381;DHT22;17169;50.966;11.038;2023-07-20T10:07:29;19.90;99.90
30381;DHT22;17169;50.966;11.038;2023-07-20T10:10:34;19.80;99.90
30381;DHT22;17169;50.966;11.038;2023-07-20T10:13:38;19.70;99.90
30381;DHT22;17169;50.966;11.038;2023-07-20T10:16:43;19.60;99.90
30381;DHT22;17169;50.966;11.038;2023-07-20T10:19:52;19.40;99.90
30381;DHT22;17169;50.966;11.038;2023-07-20T10:22:57;19.40;99.90
30381;DHT22;17169;50.966;11.038;2023-07-20T10:26:01;19.60;99.90
30381;DHT22;17169;50.966;11.038;2023-07-20T10:29:04;19.90;99.90
30381;DHT22;17169;50.966;11.038;2023-07-20T10:32:08;20.20;99.90
30381;DHT22;17169;50.966;11.038;2023-07-20T10:35:15;20.30;99.90
30381;DHT22;17169;50.966;11.038;2023-07-20T10:38:17;20.60;99.90
30381;DHT22;17169;50.966;11.038;2023-07-20T10:41:23;20.80;99.90
30381;DHT22;17169;50.966;11.038;2023-07-20T10:44:30;21.10;99.90
30381;DHT22;17169;50.966;11.038;2023-07-20T10:47:45;21.20;99.90
30381;DHT22;17169;50.966;11.038;2023-07-20T10:54:08;21.60;99.90
30381;DHT22;17169;50.966;11.038;2023-07-20T10:57:28;21.60;99.90
30381;DHT22;17169;50.966;11.038;2023-07-20T11:00:31;21.80;99.90
30381;DHT22;17169;50.966;11.038;2023-07-20T11:03:34;21.80;99.80
30381;DHT22;17169;50.966;11.038;2023-07-20T11:06:37;21.60;99.90
30381;DHT22;17169;50.966;11.038;2023-07-20T11:09:41;21.50;99.90
30381;DHT22;17169;50.966;11.038;2023-07-20T11:13:21;21.20;99.60
30381;DHT22;17169;50.966;11.038;2023-07-20T11:16:36;20.90;99.20
30381;DHT22;17169;50.966;11.038;2023-07-20T11:19:39;20.60;99.90
30381;DHT22;17169;50.966;11.038;2023-07-20T11:22:42;20.40;99.90
30381;DHT22;17169;50.966;11.038;2023-07-20T11:25:44;20.20;99.90
30381;DHT22;17169;50.966;11.038;2023-07-20T11:28:50;20.10;99.90
30381;DHT22;17169;50.966;11.038;2023-07-20T11:31:53;20.10;99.90
30381;DHT22;17169;50.966;11.038;2023-07-20T11:34:55;20.10;99.90
30381;DHT22;17169;50.966;11.038;2023-07-20T11:37:58;20.20;99.90
30381;DHT22;17169;50.966;11.038;2023-07-20T11:41:00;20.20;99.90
30381;DHT22;17169;50.966;11.038;2023-07-20T11:44:06;20.30;99.90
30381;DHT22;17169;50.966;11.038;2023-07-20T11:47:10;20.20;99.90
30381;DHT22;17169;50.966;11.038;2023-07-20T11:50:12;20.10;99.90
30381;DHT22;17169;50.966;11.038;2023-07-20T11:53:17;20.10;99.90
30381;DHT22;17169;50.966;11.038;2023-07-20T11:56:19;20.20;99.90
30381;DHT22;17169;50.966;11.038;2023-07-20T11:59:23;20.20;99.90
30381;DHT22;17169;50.966;11.038;2023-07-20T12:02:27;20.20;99.90
30381;DHT22;17169;50.966;11.038;2023-07-20T12:05:29;20.20;99.90
30381;DHT22;17169;50.966;11.038;2023-07-20T12:08:32;20.20;99.90
30381;DHT22;17169;50.966;11.038;2023-07-20T12:11:35;20.20;99.90
30381;DHT22;17169;50.966;11.038;2023-07-20T12:14:40;20.20;99.90
30381;DHT22;17169;50.966;11.038;2023-07-20T12:17:43;20.30;99.90
30381;DHT22;17169;50.966;11.038;2023-07-20T12:20:45;20.50;99.90
30381;DHT22;17169;50.966;11.038;2023-07-20T12:23:48;20.60;99.70
30381;DHT22;17169;50.966;11.038;2023-07-20T12:26:56;20.70;99.60
30381;DHT22;17169;50.966;11.038;2023-07-20T12:30:00;20.90;99.70
30381;DHT22;17169;50.966;11.038;2023-07-20T12:33:04;21.10;99.20
30381;DHT22;17169;50.966;11.038;2023-07-20T12:36:06;21.10;99.50
30381;DHT22;17169;50.966;11.038;2023-07-20T12:39:09;21.30;98.60
30381;DHT22;17169;50.966;11.038;2023-07-20T12:42:11;21.40;98.50
30381;DHT22;17169;50.966;11.038;2023-07-20T12:45:15;21.90;99.50
30381;DHT22;17169;50.966;11.038;2023-07-20T12:48:17;22.40;97.80
30381;DHT22;17169;50.966;11.038;2023-07-20T12:51:20;23.00;97.10
30381;DHT22;17169;50.966;11.038;2023-07-20T12:54:22;23.20;97.00
30381;DHT22;17169;50.966;11.038;2023-07-20T12:57:24;23.50;95.60
30381;DHT22;17169;50.966;11.038;2023-07-20T13:00:28;23.50;95.70
30381;DHT22;17169;50.966;11.038;2023-07-20T13:03:30;23.50;94.70
30381;DHT22;17169;50.966;11.038;2023-07-20T13:06:33;23.20;95.20
30381;DHT22;17169;50.966;11.038;2023-07-20T13:09:35;23.40;95.40
30381;DHT22;17169;50.966;11.038;2023-07-20T13:12:38;23.40;94.40
30381;DHT22;17169;50.966;11.038;2023-07-20T13:15:44;23.20;94.40
30381;DHT22;17169;50.966;11.038;2023-07-20T13:18:47;23.10;94.30
30381;DHT22;17169;50.966;11.038;2023-07-20T13:21:49;23.10;94.70
30381;DHT22;17169;50.966;11.038;2023-07-20T13:24:52;23.30;94.70
30381;DHT22;17169;50.966;11.038;2023-07-20T13:27:55;23.50;94.70
30381;DHT22;17169;50.966;11.038;2023-07-20T13:30:58;24.00;94.20
30381;DHT22;17169;50.966;11.038;2023-07-20T13:34:01;24.60;94.60
30381;DHT22;17169;50.966;11.038;2023-07-20T13:37:03;25.10;93.00
30381;DHT22;17169;50.966;11.038;2023-07-20T13:40:07;25.20;92.40
30381;DHT22;17169;50.966;11.038;2023-07-20T13:43:12;25.20;91.10
30381;DHT22;17169;50.966;11.038;2023-07-20T13:46:16;25.40;91.80
30381;DHT22;17169;50.966;11.038;2023-07-20T13:49:19;25.30;90.50
30381;DHT22;17169;50.966;11.038;2023-07-20T13:52:21;25.10;90.50
30381;DHT22;17169;50.966;11.038;2023-07-20T13:55:23;24.70;90.90
30381;DHT22;17169;50.966;11.038;2023-07-20T13:58:26;24.20;91.30
30381;DHT22;17169;50.966;11.038;2023-07-20T14:01:29;23.70;92.00
30381;DHT22;17169;50.966;11.038;2023-07-20T14:04:34;23.40;92.60
30381;DHT22;17169;50.966;11.038;2023-07-20T14:07:36;23.20;93.00
30381;DHT22;17169;50.966;11.038;2023-07-20T14:10:39;22.90;93.10
30381;DHT22;17169;50.966;11.038;2023-07-20T14:13:41;22.80;93.80
30381;DHT22;17169;50.966;11.038;2023-07-20T14:16:45;22.70;93.80
30381;DHT22;17169;50.966;11.038;2023-07-20T14:19:47;22.70;94.00
30381;DHT22;17169;50.966;11.038;2023-07-20T14:22:49;22.60;93.90
30381;DHT22;17169;50.966;11.038;2023-07-20T14:25:52;22.80;93.80
30381;DHT22;17169;50.966;11.038;2023-07-20T14:28:54;22.90;94.00
30381;DHT22;17169;50.966;11.038;2023-07-20T14:31:58;23.00;94.30
30381;DHT22;17169;50.966;11.038;2023-07-20T14:35:00;23.20;94.00
30381;DHT22;17169;50.966;11.038;2023-07-20T14:38:02;23.20;92.70
30381;DHT22;17169;50.966;11.038;2023-07-20T14:41:05;23.10;92.30
30381;DHT22;17169;50.966;11.038;2023-07-20T14:44:07;23.10;92.70
30381;DHT22;17169;50.966;11.038;2023-07-20T14:47:12;23.10;92.70
30381;DHT22;17169;50.966;11.038;2023-07-20T14:50:14;23.10;92.30
30381;DHT22;17169;50.966;11.038;2023-07-20T14:53:17;23.00;92.20
30381;DHT22;17169;50.966;11.038;2023-07-20T14:56:19;22.70;92.20
30381;DHT22;17169;50.966;11.038;2023-07-20T14:59:21;22.60;92.20
30381;DHT22;17169;50.966;11.038;2023-07-20T15:02:25;22.30;92.40
30381;DHT22;17169;50.966;11.038;2023-07-20T15:05:28;22.30;92.80
30381;DHT22;17169;50.966;11.038;2023-07-20T15:08:30;22.20;92.50
30381;DHT22;17169;50.966;11.038;2023-07-20T15:11:33;22.10;92.80
30381;DHT22;17169;50.966;11.038;2023-07-20T15:14:35;21.90;93.00
30381;DHT22;17169;50.966;11.038;2023-07-20T15:17:41;21.80;93.30
30381;DHT22;17169;50.966;11.038;2023-07-20T15:20:44;21.70;93.60
30381;DHT22;17169;50.966;11.038;2023-07-20T15:23:46;21.80;93.80
30381;DHT22;17169;50.966;11.038;2023-07-20T15:26:49;21.70;93.70
30381;DHT22;17169;50.966;11.038;2023-07-20T15:29:51;21.80;94.10
30381;DHT22;17169;50.966;11.038;2023-07-20T15:32:55;21.70;94.00
30381;DHT22;17169;50.966;11.038;2023-07-20T15:35:57;21.60;93.90
30381;DHT22;17169;50.966;11.038;2023-07-20T15:39:00;21.50;93.90
30381;DHT22;17169;50.966;11.038;2023-07-20T15:42:02;21.50;94.00
30381;DHT22;17169;50.966;11.038;2023-07-20T15:45:06;21.60;94.40
30381;DHT22;17169;50.966;11.038;2023-07-20T15:48:10;21.60;93.70
30381;DHT22;17169;50.966;11.038;2023-07-20T15:51:12;21.50;94.10
30381;DHT22;17169;50.966;11.038;2023-07-20T15:54:15;21.50;94.40
30381;DHT22;17169;50.966;11.038;2023-07-20T15:57:17;21.50;94.50
30381;DHT22;17169;50.966;11.038;2023-07-20T16:00:20;21.50;94.60
30381;DHT22;17169;50.966;11.038;2023-07-20T16:03:24;21.40;94.80
30381;DHT22;17169;50.966;11.038;2023-07-20T16:06:27;21.40;95.00
30381;DHT22;17169;50.966;11.038;2023-07-20T16:09:29;21.50;95.20
30381;DHT22;17169;50.966;11.038;2023-07-20T16:12:32;21.50;95.50
30381;DHT22;17169;50.966;11.038;2023-07-20T16:15:35;21.70;95.60
30381;DHT22;17169;50.966;11.038;2023-07-20T16:18:38;22.40;95.00
30381;DHT22;17169;50.966;11.038;2023-07-20T16:21:41;22.90;94.30
30381;DHT22;17169;50.966;11.038;2023-07-20T16:24:43;23.60;93.60
30381;DHT22;17169;50.966;11.038;2023-07-20T16:27:45;23.90;93.30
30381;DHT22;17169;50.966;11.038;2023-07-20T16:30:48;24.00;92.50
30381;DHT22;17169;50.966;11.038;2023-07-20T16:33:51;26.10;92.70
30381;DHT22;17169;50.966;11.038;2023-07-20T16:36:54;28.40;90.50
30381;DHT22;17169;50.966;11.038;2023-07-20T16:39:57;31.00;83.90
30381;DHT22;17169;50.966;11.038;2023-07-20T16:43:00;32.60;77.30
30381;DHT22;17169;50.966;11.038;2023-07-20T16:46:03;33.60;73.00
30381;DHT22;17169;50.966;11.038;2023-07-20T16:49:07;34.30;70.70
30381;DHT22;17169;50.966;11.038;2023-07-20T16:52:10;34.10;65.10
30381;DHT22;17169;50.966;11.038;2023-07-20T16:55:14;34.50;62.70
30381;DHT22;17169;50.966;11.038;2023-07-20T16:58:17;34.50;61.80
30381;DHT22;17169;50.966;11.038;2023-07-20T17:01:19;33.00;62.20
30381;DHT22;17169;50.966;11.038;2023-07-20T17:04:23;31.70;63.80
30381;DHT22;17169;50.966;11.038;2023-07-20T17:07:25;30.80;64.40
30381;DHT22;17169;50.966;11.038;2023-07-20T17:10:28;30.00;64.80
30381;DHT22;17169;50.966;11.038;2023-07-20T17:13:30;29.00;64.70
30381;DHT22;17169;50.966;11.038;2023-07-20T17:16:34;28.40;66.10
30381;DHT22;17169;50.966;11.038;2023-07-20T17:19:37;27.70;67.30
30381;DHT22;17169;50.966;11.038;2023-07-20T17:22:40;27.10;68.40
30381;DHT22;17169;50.966;11.038;2023-07-20T17:25:43;26.50;69.60
30381;DHT22;17169;50.966;11.038;2023-07-20T17:28:45;26.10;71.00
30381;DHT22;17169;50.966;11.038;2023-07-20T17:31:48;25.80;72.30
30381;DHT22;17169;50.966;11.038;2023-07-20T17:34:52;25.60;74.10
30381;DHT22;17169;50.966;11.038;2023-07-20T17:37:56;25.30;74.00
30381;DHT22;17169;50.966;11.038;2023-07-20T17:40:58;25.00;75.30
30381;DHT22;17169;50.966;11.038;2023-07-20T17:44:00;24.80;75.50
30381;DHT22;17169;50.966;11.038;2023-07-20T17:47:04;24.60;76.10
30381;DHT22;17169;50.966;11.038;2023-07-20T17:50:09;24.40;77.10
30381;DHT22;17169;50.966;11.038;2023-07-20T17:53:12;24.20;77.50
30381;DHT22;17169;50.966;11.038;2023-07-20T17:56:14;24.00;77.40
30381;DHT22;17169;50.966;11.038;2023-07-20T17:59:17;23.80;78.00
30381;DHT22;17169;50.966;11.038;2023-07-20T18:02:20;23.60;78.70
30381;DHT22;17169;50.966;11.038;2023-07-20T18:05:27;23.40;79.10
30381;DHT22;17169;50.966;11.038;2023-07-20T18:08:30;23.20;79.80
30381;DHT22;17169;50.966;11.038;2023-07-20T18:11:32;23.10;80.20
30381;DHT22;17169;50.966;11.038;2023-07-20T18:14:35;22.90;80.90
30381;DHT22;17169;50.966;11.038;2023-07-20T18:17:37;22.70;81.20
30381;DHT22;17169;50.966;11.038;2023-07-20T18:20:41;22.50;81.40
30381;DHT22;17169;50.966;11.038;2023-07-20T18:23:44;22.40;81.80
30381;DHT22;17169;50.966;11.038;2023-07-20T18:26:46;22.30;82.50
30381;DHT22;17169;50.966;11.038;2023-07-20T18:29:48;22.10;83.00
30381;DHT22;17169;50.966;11.038;2023-07-20T18:32:51;22.00;83.80
30381;DHT22;17169;50.966;11.038;2023-07-20T18:35:55;21.90;84.20
30381;DHT22;17169;50.966;11.038;2023-07-20T18:38:58;21.80;84.80
30381;DHT22;17169;50.966;11.038;2023-07-20T18:42:00;21.60;86.40
30381;DHT22;17169;50.966;11.038;2023-07-20T18:45:03;21.50;85.90
30381;DHT22;17169;50.966;11.038;2023-07-20T18:48:06;21.50;86.60
30381;DHT22;17169;50.966;11.038;2023-07-20T18:51:09;21.30;87.10
30381;DHT22;17169;50.966;11.038;2023-07-20T18:54:12;21.20;87.50
30381;DHT22;17169;50.966;11.038;2023-07-20T18:57:14;21.10;88.10
30381;DHT22;17169;50.966;11.038;2023-07-20T19:00:16;21.00;88.60
30381;DHT22;17169;50.966;11.038;2023-07-20T19:03:19;20.90;88.90